This is the latest recevied weather packets stored in our database for station/object IW3HBX-3. If no packets are shown the sender has not sent any weather packets the latest 10 day(s).
| Time | Temp. | Humidity | Pressure | Rain* | Wind** | Luminosity | Snow |
|---|---|---|---|---|---|---|---|
| 1777899564 | 25.56° C | 47% | 1016.6 hPa | 0 mm | - | 626 W/m² | - |
| 1777899263 | 25.56° C | 48% | 1016.5 hPa | 0 mm | - | 626 W/m² | - |
| 1777898963 | 25° C | 49% | 1016.6 hPa | 0 mm | - | 746 W/m² | - |
| 1777898663 | 25.56° C | 49% | 1016.7 hPa | 0 mm | - | 731 W/m² | - |
| 1777898363 | 25° C | 49% | 1016.7 hPa | 0 mm | - | 561 W/m² | - |
| 1777898063 | 25° C | 50% | 1016.7 hPa | 0 mm | - | 562 W/m² | - |
| 1777897763 | 25° C | 50% | 1016.9 hPa | 0 mm | - | 739 W/m² | - |
| 1777897463 | 25° C | 51% | 1016.9 hPa | 0 mm | - | 716 W/m² | - |
| 1777897163 | 25° C | 51% | 1016.9 hPa | 0 mm | - | 736 W/m² | - |
| 1777896863 | 25° C | 50% | 1016.9 hPa | 0 mm | - | 713 W/m² | - |
| 1777896563 | 24.44° C | 52% | 1016.9 hPa | 0 mm | - | 685 W/m² | - |
| 1777896263 | 23.89° C | 51% | 1017 hPa | 0 mm | - | 723 W/m² | - |
| 1777895962 | 24.44° C | 50% | 1017 hPa | 0 mm | - | 720 W/m² | - |
| 1777895662 | 24.44° C | 51% | 1017 hPa | 0 mm | - | 850 W/m² | - |
| 1777895362 | 24.44° C | 48% | 1017 hPa | 0 mm | - | 534 W/m² | - |
| 1777895062 | 25° C | 49% | 1017.1 hPa | 0 mm | - | 778 W/m² | - |
| 1777894762 | 25° C | 48% | 1017 hPa | 0 mm | - | 813 W/m² | - |
| 1777894462 | 24.44° C | 48% | 1017.1 hPa | 0 mm | - | 777 W/m² | - |
| 1777894162 | 24.44° C | 50% | 1017.1 hPa | 0 mm | - | 829 W/m² | - |
| 1777893601 | 24.44° C | 48% | 1017.2 hPa | 0 mm | - | 733 W/m² | - |
| 1777893562 | 24.44° C | 48% | 1017.2 hPa | 0 mm | - | 733 W/m² | - |
| 1777893262 | 25° C | 49% | 1017.4 hPa | 0 mm | - | 809 W/m² | - |
| 1777892962 | 23.89° C | 50% | 1017.4 hPa | 0 mm | - | 834 W/m² | - |
| 1777892661 | 23.89° C | 50% | 1017.4 hPa | 0 mm | - | 870 W/m² | - |
| 1777892361 | 23.89° C | 50% | 1017.6 hPa | 0 mm | - | 783 W/m² | - |
* Rain latest hour (hover to see other rain measurements)
** Current wind speed in m/s (hover to see current wind gust speed)